THY2KC UBBB-LTFM
Flight info
| Callsign | THY2KC |
|---|---|
| Flight time | N/A |
| Altitude | 40000 |
| Route | AGDAM M747 LUSAL N319 ADEKI DCT BADIR N644 TETRO DCT SARPI UM10 OLUPO UL851 KARDE UN644 SIN UW90 INB UL746 ADUMU UT310 NUGBA |
| Aircraft | B77W/H-SDE1E2E3FGHIJ2J3J4J5M1RWXY/LB1D1 |
Departure
| Time | 2025-09-05 15:14 |
|---|---|
| Airport | Heydar Aliyev International Airport (UBBB) |
Arrival
| Time | N/A |
|---|---|
| Airport | İstanbul Airport (LTFM) |
| Time | Latitude | Longitude | Altitude | Speed | Heading |
|---|---|---|---|---|---|
| 2025-09-05 14:39 | 40.46761 | 50.05248 | 19 ft | 0 kts | 178° |
| 2025-09-05 15:04 | 40.46812 | 50.05238 | 23 ft | 3 kts | 166° |
| 2025-09-05 15:04 | 40.46852 | 50.05225 | 22 ft | 3 kts | 162° |
| 2025-09-05 15:04 | 40.46863 | 50.05220 | 24 ft | 0 kts | 160° |
| 2025-09-05 15:07 | 40.46840 | 50.05244 | 22 ft | 8 kts | 121° |
| 2025-09-05 15:08 | 40.46923 | 50.05430 | 20 ft | 11 kts | 59° |
| 2025-09-05 15:08 | 40.46932 | 50.05538 | 20 ft | 14 kts | 87° |
| 2025-09-05 15:08 | 40.46941 | 50.05870 | 20 ft | 20 kts | 88° |
| 2025-09-05 15:09 | 40.46781 | 50.06092 | 19 ft | 14 kts | 179° |
| 2025-09-05 15:09 | 40.46685 | 50.06094 | 19 ft | 14 kts | 179° |
| 2025-09-05 15:10 | 40.46472 | 50.06097 | 19 ft | 16 kts | 179° |
| 2025-09-05 15:10 | 40.46222 | 50.06101 | 19 ft | 22 kts | 179° |
| 2025-09-05 15:11 | 40.45895 | 50.06106 | 19 ft | 18 kts | 179° |
| 2025-09-05 15:11 | 40.45663 | 50.06149 | 19 ft | 14 kts | 123° |
| 2025-09-05 15:12 | 40.45732 | 50.06324 | 15 ft | 13 kts | 7° |
| 2025-09-05 15:12 | 40.46575 | 50.06310 | 19 ft | 143 kts | 359° |
| 2025-09-05 15:13 | 40.48949 | 50.06300 | 1506 ft | 170 kts | 356° |
| 2025-09-05 15:13 | 40.51313 | 50.05549 | 2995 ft | 195 kts | 351° |
| 2025-09-05 15:14 | 40.54443 | 50.04834 | 3898 ft | 251 kts | 351° |
| 2025-09-05 15:14 | 40.57973 | 50.04050 | 5900 ft | 264 kts | 349° |
| 2025-09-05 15:15 | 40.61309 | 50.02072 | 7592 ft | 274 kts | 310° |
| 2025-09-05 15:15 | 40.62861 | 49.97523 | 9417 ft | 281 kts | 286° |
| 2025-09-05 15:16 | 40.63967 | 49.92467 | 10981 ft | 307 kts | 285° |
| 2025-09-05 15:16 | 40.65250 | 49.86525 | 11860 ft | 358 kts | 285° |
| 2025-09-05 15:17 | 40.66649 | 49.80129 | 14101 ft | 367 kts | 285° |
| 2025-09-05 15:17 | 40.68088 | 49.73592 | 16196 ft | 377 kts | 285° |
| 2025-09-05 15:18 | 40.70331 | 49.63414 | 19179 ft | 393 kts | 285° |
| 2025-09-05 15:19 | 40.71867 | 49.56428 | 21072 ft | 401 kts | 285° |
| 2025-09-05 15:19 | 40.72646 | 49.52881 | 21996 ft | 405 kts | 285° |
| 2025-09-05 15:20 | 40.75026 | 49.41992 | 24430 ft | 418 kts | 284° |
| 2025-09-05 15:21 | 40.78254 | 49.27140 | 27383 ft | 429 kts | 284° |
| 2025-09-05 15:23 | 40.84938 | 48.96053 | 31985 ft | 444 kts | 284° |
| 2025-09-05 15:25 | 40.91478 | 48.65213 | 36113 ft | 430 kts | 283° |
| 2025-09-05 15:26 | 40.97009 | 48.38748 | 38991 ft | 424 kts | 282° |
| 2025-09-05 15:29 | 41.03941 | 48.05106 | 40084 ft | 426 kts | 282° |
| 2025-09-05 15:30 | 41.09326 | 47.78595 | 40065 ft | 426 kts | 282° |
| 2025-09-05 15:33 | 41.16149 | 47.44489 | 40093 ft | 425 kts | 282° |
| 2025-09-05 15:34 | 41.21383 | 47.17939 | 40071 ft | 426 kts | 282° |
| 2025-09-05 15:37 | 41.28064 | 46.83525 | 40051 ft | 429 kts | 282° |
| 2025-09-05 15:38 | 41.32304 | 46.56488 | 40043 ft | 427 kts | 278° |
| 2025-09-05 15:41 | 41.36925 | 46.22814 | 40021 ft | 428 kts | 278° |
| 2025-09-05 15:42 | 41.40611 | 45.95472 | 40021 ft | 429 kts | 278° |
| 2025-09-05 15:45 | 41.45256 | 45.60257 | 40020 ft | 430 kts | 278° |
| 2025-09-05 15:46 | 41.48292 | 45.36694 | 40019 ft | 430 kts | 277° |
| 2025-09-05 15:49 | 41.50692 | 45.07545 | 40025 ft | 430 kts | 275° |
| 2025-09-05 15:50 | 41.52885 | 44.79987 | 40028 ft | 430 kts | 274° |
| 2025-09-05 15:53 | 41.55623 | 44.44331 | 40085 ft | 431 kts | 274° |
| 2025-09-05 15:54 | 41.57715 | 44.16406 | 40116 ft | 433 kts | 274° |
| 2025-09-05 15:57 | 41.60505 | 43.80480 | 40128 ft | 431 kts | 274° |
| 2025-09-05 15:59 | 41.62881 | 43.48510 | 40117 ft | 434 kts | 274° |
| 2025-09-05 16:01 | 41.65201 | 43.16277 | 40121 ft | 437 kts | 273° |
| 2025-09-05 16:02 | 41.67115 | 42.88098 | 40116 ft | 432 kts | 270° |
| 2025-09-05 16:05 | 41.64485 | 42.52241 | 40096 ft | 433 kts | 262° |
| 2025-09-05 16:06 | 41.62077 | 42.24181 | 40060 ft | 435 kts | 262° |
| 2025-09-05 16:09 | 41.58871 | 41.88046 | 39999 ft | 435 kts | 262° |
| 2025-09-05 16:10 | 41.56305 | 41.60032 | 39961 ft | 436 kts | 262° |
| 2025-09-05 16:13 | 41.56118 | 41.23727 | 39959 ft | 438 kts | 272° |
| 2025-09-05 16:14 | 41.57695 | 40.95535 | 39937 ft | 440 kts | 271° |
| 2025-09-05 16:17 | 41.59634 | 40.58833 | 39944 ft | 440 kts | 271° |
| 2025-09-05 16:18 | 41.61046 | 40.30303 | 39944 ft | 441 kts | 271° |
| 2025-09-05 16:21 | 41.62765 | 39.93501 | 39956 ft | 441 kts | 271° |
| 2025-09-05 16:22 | 41.64023 | 39.64844 | 39946 ft | 442 kts | 271° |
| 2025-09-05 16:25 | 41.65537 | 39.28408 | 39952 ft | 433 kts | 272° |
| 2025-09-05 16:26 | 41.66635 | 39.00160 | 39954 ft | 438 kts | 272° |
| 2025-09-05 16:29 | 41.67912 | 38.64804 | 39953 ft | 440 kts | 272° |
| 2025-09-05 16:30 | 41.68865 | 38.36212 | 39953 ft | 439 kts | 271° |
| 2025-09-05 16:33 | 41.69984 | 37.99519 | 39952 ft | 439 kts | 271° |
| 2025-09-05 16:34 | 41.70874 | 37.70913 | 39955 ft | 441 kts | 276° |
| 2025-09-05 16:37 | 41.80463 | 37.36115 | 39962 ft | 447 kts | 290° |
| 2025-09-05 16:38 | 41.88876 | 37.09306 | 39952 ft | 446 kts | 287° |
| 2025-09-05 16:41 | 41.92556 | 36.72580 | 39963 ft | 443 kts | 274° |
| 2025-09-05 16:42 | 41.94434 | 36.43665 | 39971 ft | 445 kts | 274° |
| 2025-09-05 16:45 | 41.96745 | 36.06491 | 39972 ft | 445 kts | 273° |
| 2025-09-05 16:46 | 41.98465 | 35.77455 | 39980 ft | 446 kts | 273° |